Time;durP1;ratioP1;P1;durP2;ratioP2;P2;SDS_P1;SDS_P2;PMS_P1;PMS_P2;Temp;Humidity;BMP_temperature;BMP_pressure;BME280_temperature;BME280_humidity;BME280_pressure;Samples;Min_cycle;Max_cycle;Signal;HPM_P1;HPM_P2
2022/06/20 00:01:52;;;;;;;5.57;1.88;;;;;;;19.60;60.21;99756.22;5000016;28;20413;-56
2022/06/20 00:04:36;;;;;;;7.65;2.28;;;;;;;19.63;60.29;99795.56;5014248;28;20048;-57
2022/06/20 00:07:21;;;;;;;5.25;2.17;;;;;;;19.65;60.04;99861.22;4999711;28;20402;-57
2022/06/20 00:10:05;;;;;;;5.82;2.42;;;;;;;19.64;60.01;99918.22;5000020;28;20076;-57
2022/06/20 00:12:51;;;;;;;3.40;1.83;;;;;;;19.65;60.03;99955.84;5014866;28;20052;-56
2022/06/20 00:15:36;;;;;;;7.93;2.15;;;;;;;19.60;60.28;99948.97;5000152;28;20103;-57
2022/06/20 00:18:19;;;;;;;6.55;2.05;;;;;;;19.61;60.21;99916.53;5014613;28;20059;-56
2022/06/20 00:21:03;;;;;;;5.55;2.35;;;;;;;19.62;60.10;99894.56;5014243;28;20468;-56
2022/06/20 00:23:48;;;;;;;4.85;2.47;;;;;;;19.63;60.21;99864.75;5014583;28;20048;-57
2022/06/20 00:26:33;;;;;;;5.65;1.95;;;;;;;19.64;60.33;99860.38;4999609;28;20053;-56
2022/06/20 00:29:17;;;;;;;3.83;2.30;;;;;;;19.65;60.12;99827.94;5014333;28;20397;-56
2022/06/20 00:32:02;;;;;;;13.18;3.08;;;;;;;19.65;60.04;99790.25;5014238;28;20053;-57
2022/06/20 00:34:45;;;;;;;7.20;2.30;;;;;;;19.64;59.95;99765.75;4999425;28;20451;-55
2022/06/20 00:37:30;;;;;;;5.68;2.13;;;;;;;19.66;60.18;99753.44;4999778;28;20088;-56
2022/06/20 00:40:52;;;;;;;6.55;2.58;;;;;;;19.65;60.28;99717.53;5000069;28;20436;-57
2022/06/20 00:43:42;;;;;;;3.90;2.20;;;;;;;19.65;60.24;99700.88;4902485;29;20148;-57
2022/06/20 00:46:30;;;;;;;6.32;2.85;;;;;;;19.65;60.42;99683.38;4998600;28;20137;-56
2022/06/20 00:49:23;;;;;;;8.35;2.80;;;;;;;19.62;60.42;99665.88;4999785;28;20045;-57
2022/06/20 00:52:29;;;;;;;6.65;2.35;;;;;;;19.54;60.55;99638.97;5013484;28;20053;-56
2022/06/20 00:55:19;;;;;;;4.72;2.45;;;;;;;19.47;60.54;99584.84;4998847;28;20107;-57
2022/06/20 00:58:24;;;;;;;7.28;2.63;;;;;;;19.39;60.74;99548.28;4999219;28;20080;-57
2022/06/20 01:01:13;;;;;;;6.25;2.40;;;;;;;19.32;60.66;99560.72;5013638;28;20100;-58
2022/06/20 01:04:04;;;;;;;6.57;2.58;;;;;;;19.29;60.80;99554.69;4998802;28;20099;-56
2022/06/20 01:06:53;;;;;;;5.55;2.25;;;;;;;19.25;60.96;99553.06;5014100;28;20053;-56
2022/06/20 01:09:43;;;;;;;4.10;2.28;;;;;;;19.23;61.05;99544.38;4999115;28;20049;-57
2022/06/20 01:12:33;;;;;;;12.27;2.78;;;;;;;19.21;60.88;99540.94;4999093;28;20060;-57
2022/06/20 01:15:34;;;;;;;5.80;2.47;;;;;;;19.20;61.09;99547.09;5013998;28;20092;-56
2022/06/20 01:18:25;;;;;;;7.97;2.97;;;;;;;19.19;61.09;99559.34;5013513;28;20052;-56
2022/06/20 01:21:14;;;;;;;8.73;2.50;;;;;;;19.20;61.25;99566.31;4998731;28;20048;-57
2022/06/20 01:24:31;;;;;;;6.18;2.20;;;;;;;19.23;61.20;99583.78;4999021;28;20052;-56
2022/06/20 01:27:31;;;;;;;6.18;2.28;;;;;;;19.26;61.00;99586.31;5013363;28;20084;-56
2022/06/20 01:30:15;;;;;;;5.40;2.25;;;;;;;19.26;61.02;99570.53;5002375;28;20065;-56
2022/06/20 01:32:59;;;;;;;5.30;2.60;;;;;;;19.23;61.51;99526.00;5017856;28;20068;-56
2022/06/20 01:38:47;;;;;;;4.40;1.90;;;;;;;19.21;61.36;99477.91;5017660;28;20053;-58
2022/06/20 01:44:43;;;;;;;5.70;2.53;;;;;;;19.15;61.15;99461.41;5017134;28;20124;-56
2022/06/20 01:47:27;;;;;;;6.10;2.65;;;;;;;19.15;61.41;99461.41;5002858;28;20060;-57
2022/06/20 01:50:11;;;;;;;5.38;2.30;;;;;;;19.15;61.19;99450.03;5017144;28;20464;-57
2022/06/20 01:52:55;;;;;;;6.00;2.38;;;;;;;19.13;61.13;99422.97;5017116;28;20040;-56
2022/06/20 01:55:43;;;;;;;3.38;1.83;;;;;;;19.11;61.24;99411.63;5016656;28;20428;-57
2022/06/20 01:58:35;;;;;;;2.97;2.13;;;;;;;19.10;61.37;99431.78;5002469;28;20049;-56
2022/06/20 02:01:19;;;;;;;7.90;2.25;;;;;;;19.11;61.34;99451.88;5002237;28;20057;-57
2022/06/20 02:04:06;;;;;;;4.95;2.45;;;;;;;19.11;61.56;99443.16;5001904;28;20080;-57
2022/06/20 02:06:52;;;;;;;6.07;2.40;;;;;;;19.10;61.44;99444.91;5002357;28;20125;-56
2022/06/20 02:09:37;;;;;;;4.00;2.10;;;;;;;19.07;61.64;99452.00;5002173;28;20101;-57
2022/06/20 02:12:21;;;;;;;7.40;2.65;;;;;;;19.07;61.50;99460.78;5017093;28;20068;-57
2022/06/20 02:15:06;;;;;;;5.57;2.63;;;;;;;19.07;61.39;99463.41;5016874;28;20061;-56
2022/06/20 02:17:51;;;;;;;5.07;2.50;;;;;;;19.04;61.40;99465.22;5001805;28;20100;-56
2022/06/20 02:20:45;;;;;;;6.80;2.22;;;;;;;19.02;61.39;99474.00;5016365;28;20057;-57
2022/06/20 02:23:32;;;;;;;;;;;;;;;18.98;61.47;99482.91;5002141;28;20049;-57
2022/06/20 02:26:19;;;;;;;5.85;2.72;;;;;;;18.96;61.47;99475.94;5001694;28;19984;-56
2022/06/20 02:29:21;;;;;;;5.15;2.22;;;;;;;18.96;61.64;99481.19;5001854;28;20128;-56
2022/06/20 02:32:22;;;;;;;7.40;2.60;;;;;;;18.95;61.68;99476.84;5016400;28;20045;-56
2022/06/20 02:35:11;;;;;;;5.70;2.33;;;;;;;18.94;61.69;99480.34;5016388;28;20186;-55
2022/06/20 02:37:55;;;;;;;5.18;2.10;;;;;;;18.95;61.48;99464.59;5001441;28;20099;-55
2022/06/20 02:40:42;;;;;;;5.93;2.70;;;;;;;18.94;61.51;99459.34;5014998;28;20056;-56
2022/06/20 02:43:41;;;;;;;3.78;1.88;;;;;;;18.92;61.55;99458.53;5001371;28;20452;-56
2022/06/20 02:46:28;;;;;;;4.35;1.95;;;;;;;18.91;61.65;99459.44;5001186;28;20057;-56
2022/06/20 02:49:17;;;;;;;4.38;2.17;;;;;;;18.90;61.74;99468.22;5001422;28;20115;-57
2022/06/20 02:52:04;;;;;;;8.45;2.45;;;;;;;18.89;61.66;99451.59;5000979;28;20099;-57
2022/06/20 02:54:50;;;;;;;7.13;2.45;;;;;;;18.88;61.74;99447.25;5001264;28;20096;-57
2022/06/20 02:57:38;;;;;;;7.13;2.25;;;;;;;18.86;61.56;99456.91;5001307;28;20421;-56
2022/06/20 03:00:32;;;;;;;7.78;2.17;;;;;;;18.84;61.63;99458.75;5001342;28;20095;-56
2022/06/20 03:03:26;;;;;;;6.93;2.15;;;;;;;18.85;61.63;99487.56;5015885;28;20096;-56
2022/06/20 03:06:39;;;;;;;6.90;2.03;;;;;;;18.85;61.39;99519.06;5000639;28;20125;-57
2022/06/20 03:09:33;;;;;;;5.82;2.67;;;;;;;18.86;61.45;99551.44;5015657;28;20580;-56
2022/06/20 03:12:17;;;;;;;3.63;2.20;;;;;;;18.88;61.53;99586.38;5000913;28;20572;-57
2022/06/20 03:15:01;;;;;;;6.50;2.45;;;;;;;18.91;61.58;99633.56;5015895;28;20134;-56
2022/06/20 03:17:46;;;;;;;;;;;;;;;18.93;61.43;99644.91;5016145;28;20137;-57
2022/06/20 03:20:30;;;;;;;;;;;;;;;18.94;61.51;99656.25;5001086;28;19983;-56
2022/06/20 03:23:21;;;;;;;9.27;2.78;;;;;;;18.96;61.58;99672.88;5015582;28;19925;-56
2022/06/20 03:26:15;;;;;;;5.13;2.17;;;;;;;18.99;61.51;99699.06;5000414;28;20044;-57
2022/06/20 03:29:00;;;;;;;5.50;2.60;;;;;;;19.02;61.30;99715.59;5000487;28;20049;-56
2022/06/20 03:31:44;;;;;;;7.35;2.38;;;;;;;19.02;61.45;99723.47;5000806;28;20048;-56
2022/06/20 03:34:28;;;;;;;4.68;2.10;;;;;;;19.05;61.46;99738.31;5015617;28;20076;-57
2022/06/20 03:37:12;;;;;;;6.95;2.45;;;;;;;19.07;61.42;99752.28;5015204;28;20441;-57
2022/06/20 03:39:56;;;;;;;4.68;1.50;;;;;;;19.08;61.41;99756.59;5014825;28;20114;-57
2022/06/20 03:42:40;;;;;;;5.18;2.25;;;;;;;19.09;61.36;99757.47;5000845;28;20109;-57
2022/06/20 03:45:28;;;;;;;4.00;2.08;;;;;;;19.10;61.56;99762.69;5014715;28;20100;-56
2022/06/20 03:48:19;;;;;;;4.00;1.92;;;;;;;19.10;61.36;99759.19;5000060;28;20048;-56
2022/06/20 03:51:11;;;;;;;5.07;3.10;;;;;;;19.10;61.46;99746.06;5000213;28;20049;-56
2022/06/20 03:54:10;;;;;;;3.60;2.35;;;;;;;19.09;61.23;99744.34;4999959;28;20196;-55
2022/06/20 03:57:20;;;;;;;6.30;2.20;;;;;;;19.08;61.33;99756.59;5015100;28;20468;-55
2022/06/20 04:00:15;;;;;;;5.80;2.53;;;;;;;19.08;61.41;99767.09;5000206;28;20056;-55
2022/06/20 04:03:07;;;;;;;4.50;1.70;;;;;;;19.08;61.25;99761.00;5014863;28;20061;-56
2022/06/20 04:06:06;;;;;;;4.00;1.92;;;;;;;19.04;61.20;99752.34;5014806;28;20401;-55
2022/06/20 04:12:16;;;;;;;5.53;2.25;;;;;;;18.98;61.28;99727.09;5014696;28;20393;-55
2022/06/20 04:15:23;;;;;;;4.13;1.80;;;;;;;18.98;61.52;99720.97;5000092;28;20069;-55
2022/06/20 04:18:31;;;;;;;5.60;2.45;;;;;;;18.96;61.42;99715.75;4999604;28;20084;-55
2022/06/20 04:21:28;;;;;;;6.55;2.63;;;;;;;18.94;61.51;99704.41;5014587;28;20092;-55
2022/06/20 04:24:28;;;;;;;4.10;2.03;;;;;;;18.92;61.61;99702.72;4999772;28;20052;-55
2022/06/20 04:27:34;;;;;;;4.78;2.25;;;;;;;18.89;61.40;99695.75;5014162;28;20045;-56
2022/06/20 04:30:21;;;;;;;6.10;2.38;;;;;;;18.87;61.43;99677.41;4999692;28;20053;-55
2022/06/20 04:33:27;;;;;;;6.15;2.20;;;;;;;18.82;61.77;99665.31;4999962;28;20057;-56
2022/06/20 04:36:36;;;;;;;5.15;2.20;;;;;;;18.80;61.51;99667.09;4999618;28;20111;-54
2022/06/20 04:39:39;;;;;;;8.40;2.45;;;;;;;18.77;61.66;99665.38;4999393;28;20096;-56
2022/06/20 04:42:41;;;;;;;5.80;2.30;;;;;;;18.76;61.51;99660.19;4999365;28;20145;-56
2022/06/20 04:45:39;;;;;;;8.40;2.28;;;;;;;18.77;61.66;99664.53;5013666;28;20577;-56
2022/06/20 04:48:24;;;;;;;4.18;2.13;;;;;;;18.75;61.53;99671.59;5013810;28;20057;-57
2022/06/20 04:51:14;;;;;;;7.22;2.45;;;;;;;18.74;61.80;99672.50;4998917;28;20095;-57
2022/06/20 04:53:59;;;;;;;5.72;2.20;;;;;;;18.75;61.86;99676.84;4999209;28;20092;-55
2022/06/20 04:56:44;;;;;;;7.28;2.58;;;;;;;18.74;61.87;99681.25;4998666;28;20161;-55
2022/06/20 04:59:31;;;;;;;6.43;2.25;;;;;;;18.72;61.87;99681.25;4998769;28;20045;-56
2022/06/20 05:02:23;;;;;;;4.00;2.00;;;;;;;18.74;61.88;99693.47;4992818;28;20061;-56
2022/06/20 05:05:12;;;;;;;8.60;3.03;;;;;;;18.76;61.83;99687.31;4992662;28;20049;-56
2022/06/20 05:07:56;;;;;;;5.15;2.35;;;;;;;18.76;61.85;99668.94;4994248;28;20089;-57
2022/06/20 05:10:47;;;;;;;7.63;2.97;;;;;;;18.75;61.65;99680.34;4993856;28;20564;-56
2022/06/20 05:13:40;;;;;;;4.88;2.30;;;;;;;18.75;61.84;99675.09;4993835;28;20185;-56
2022/06/20 05:16:29;;;;;;;8.63;2.40;;;;;;;18.75;61.94;99677.72;4993775;28;20049;-57
2022/06/20 05:19:20;;;;;;;7.90;3.10;;;;;;;18.74;61.69;99683.88;4992910;28;20068;-57
2022/06/20 05:22:12;;;;;;;5.70;2.58;;;;;;;18.72;61.81;99690.91;4992928;28;20065;-56
2022/06/20 05:25:00;;;;;;;4.80;2.50;;;;;;;18.69;61.85;99690.97;4993409;28;20109;-57
2022/06/20 05:27:57;;;;;;;7.53;2.13;;;;;;;18.67;61.78;99706.78;4993095;28;20097;-56
2022/06/20 05:30:42;;;;;;;6.90;3.15;;;;;;;18.65;61.82;99700.69;4992927;28;20184;-55
2022/06/20 05:33:41;;;;;;;7.43;2.20;;;;;;;18.68;61.75;99699.75;4993890;28;20572;-56
2022/06/20 05:36:30;;;;;;;10.77;2.75;;;;;;;18.66;61.91;99697.16;4993137;28;20053;-56
2022/06/20 05:39:23;;;;;;;6.85;2.53;;;;;;;18.66;61.96;99693.66;4993368;28;20053;-55
2022/06/20 05:42:11;;;;;;;5.80;2.33;;;;;;;18.64;61.94;99698.97;4992980;28;20046;-55
2022/06/20 05:44:55;;;;;;;5.53;2.33;;;;;;;18.62;61.97;99713.88;4992797;28;20045;-56
2022/06/20 05:47:41;;;;;;;10.90;2.58;;;;;;;18.60;61.98;99725.31;4993461;28;20112;-56
2022/06/20 05:50:40;;;;;;;9.02;3.30;;;;;;;18.55;62.01;99721.03;4993076;28;20050;-56
2022/06/20 05:53:30;;;;;;;7.40;2.53;;;;;;;18.54;62.04;99715.78;4992762;28;20414;-56
2022/06/20 05:56:27;;;;;;;9.68;2.97;;;;;;;18.51;62.26;99727.22;4993671;28;20089;-57
2022/06/20 05:59:27;;;;;;;7.63;2.50;;;;;;;18.52;62.12;99742.06;4992631;28;20049;-56
2022/06/20 06:02:20;;;;;;;6.88;2.30;;;;;;;18.52;62.17;99749.94;5001863;28;20101;-57
2022/06/20 06:05:08;;;;;;;5.70;2.45;;;;;;;18.52;62.06;99760.44;4998367;28;20044;-56
2022/06/20 06:08:20;;;;;;;5.55;2.58;;;;;;;18.53;61.96;99763.94;5012789;28;20049;-56
2022/06/20 06:11:25;;;;;;;8.65;2.85;;;;;;;18.55;62.03;99749.00;4998539;28;20076;-56
2022/06/20 06:14:22;;;;;;;6.22;2.47;;;;;;;18.53;61.97;99751.69;5012888;28;20100;-56
2022/06/20 06:17:16;;;;;;;5.85;2.65;;;;;;;18.53;62.05;99745.56;5001907;28;20396;-56
2022/06/20 06:20:04;;;;;;;8.30;2.75;;;;;;;18.53;62.11;99763.94;5002032;28;20440;-56
2022/06/20 06:22:53;;;;;;;8.68;2.55;;;;;;;18.53;62.25;99766.56;5016708;28;20052;-55
2022/06/20 06:25:42;;;;;;;6.97;2.53;;;;;;;18.50;62.08;99770.09;5016207;28;20049;-57
2022/06/20 06:28:28;;;;;;;7.35;2.80;;;;;;;18.49;62.21;99772.78;5001482;28;20045;-56
2022/06/20 06:31:25;;;;;;;8.23;2.78;;;;;;;18.47;62.09;99771.94;5001959;28;20048;-56
2022/06/20 06:34:36;;;;;;;6.03;3.05;;;;;;;18.47;62.29;99769.31;5001801;28;20128;-57
2022/06/20 06:37:27;;;;;;;6.68;2.60;;;;;;;18.46;62.18;99773.69;5001460;28;20520;-55
2022/06/20 06:40:34;;;;;;;8.55;2.97;;;;;;;18.47;62.17;99761.44;5016515;28;20048;-55
2022/06/20 06:43:21;;;;;;;9.23;2.83;;;;;;;18.45;62.33;99773.72;5015415;28;20052;-55
2022/06/20 06:46:39;;;;;;;7.40;2.42;;;;;;;18.43;62.20;99771.16;5016200;28;20049;-56
2022/06/20 06:49:46;;;;;;;6.72;2.78;;;;;;;18.42;62.14;99788.63;5001423;28;20060;-56
2022/06/20 06:52:44;;;;;;;5.25;2.58;;;;;;;18.42;62.26;99793.03;5000965;28;20049;-57
2022/06/20 06:55:40;;;;;;;9.18;2.60;;;;;;;18.41;62.26;99800.00;5016000;28;20190;-56
2022/06/20 06:58:47;;;;;;;7.00;2.67;;;;;;;18.42;62.27;99808.75;5001051;28;20468;-56
2022/06/20 07:01:40;;;;;;;8.38;2.58;;;;;;;18.44;62.33;99809.59;5000936;28;20476;-57
2022/06/20 07:04:39;;;;;;;6.53;3.05;;;;;;;18.46;62.09;99834.03;5001114;28;20052;-56
2022/06/20 07:07:26;;;;;;;8.00;2.92;;;;;;;18.48;62.21;99834.84;5015614;28;20072;-57
2022/06/20 07:10:31;;;;;;;7.57;2.47;;;;;;;18.48;62.25;99834.84;5015719;28;20092;-56
2022/06/20 07:13:26;;;;;;;9.80;3.15;;;;;;;18.46;62.31;99833.16;5001091;28;20069;-57
2022/06/20 07:16:26;;;;;;;4.93;2.13;;;;;;;18.45;62.16;99841.94;5000919;28;20053;-56
2022/06/20 07:19:12;;;;;;;6.40;2.55;;;;;;;18.44;62.54;99856.84;5001078;28;20405;-56
2022/06/20 07:22:01;;;;;;;5.13;2.30;;;;;;;18.44;62.43;99869.06;5000528;28;20064;-56
2022/06/20 07:24:46;;;;;;;8.38;3.08;;;;;;;18.47;62.28;99875.09;5000706;28;20057;-56
2022/06/20 07:27:36;;;;;;;7.55;2.63;;;;;;;18.49;62.51;99875.09;5014650;28;20406;-56
2022/06/20 07:30:30;;;;;;;6.30;2.35;;;;;;;18.48;62.38;99879.47;5000307;28;20055;-57
2022/06/20 07:33:27;;;;;;;8.35;2.63;;;;;;;18.46;62.59;99885.66;5000410;28;20121;-56
2022/06/20 07:36:14;;;;;;;7.28;2.85;;;;;;;18.48;62.27;99892.59;5000722;28;20060;-56
2022/06/20 07:39:19;;;;;;;6.57;2.58;;;;;;;18.50;62.30;99885.56;5000561;28;20127;-56
2022/06/20 07:42:22;;;;;;;7.65;3.00;;;;;;;18.48;62.36;99886.50;5015395;28;20206;-56
2022/06/20 07:45:12;;;;;;;6.30;2.25;;;;;;;18.43;62.41;99881.34;5015039;28;20464;-57
2022/06/20 07:48:01;;;;;;;6.53;2.88;;;;;;;18.39;62.44;99891.00;5000265;28;20049;-56
2022/06/20 07:50:55;;;;;;;7.10;2.38;;;;;;;18.39;62.60;99900.63;5000007;28;20069;-56
2022/06/20 07:53:47;;;;;;;10.38;2.53;;;;;;;18.40;62.46;99897.13;5000246;28;20080;-56
2022/06/20 07:56:56;;;;;;;8.60;3.08;;;;;;;18.38;62.67;99896.28;5000273;28;20137;-55
2022/06/20 07:59:47;;;;;;;10.90;2.97;;;;;;;18.36;62.46;99880.59;5014696;28;20112;-56
2022/06/20 08:02:51;;;;;;;5.03;2.47;;;;;;;18.33;62.52;99869.25;4999809;28;20508;-56
2022/06/20 08:05:44;;;;;;;7.22;2.88;;;;;;;18.33;62.68;99890.25;4999473;28;20045;-57
2022/06/20 08:08:37;;;;;;;6.55;2.95;;;;;;;18.35;62.32;99893.72;5014846;28;20109;-56
2022/06/20 08:11:51;;;;;;;5.97;2.28;;;;;;;18.37;62.54;99890.16;4999476;28;20052;-56
2022/06/20 08:14:56;;;;;;;13.32;3.03;;;;;;;18.37;62.46;99892.78;5014698;28;20496;-56
2022/06/20 08:17:40;;;;;;;7.95;2.70;;;;;;;18.39;62.45;99898.00;5014377;28;20049;-56
2022/06/20 08:20:30;;;;;;;4.60;2.28;;;;;;;18.38;62.60;99904.16;5013950;28;20048;-57
2022/06/20 08:23:21;;;;;;;8.63;2.67;;;;;;;18.36;62.75;99911.19;4999422;28;20053;-56
2022/06/20 08:26:12;;;;;;;6.32;2.30;;;;;;;18.35;62.47;99917.31;5013887;28;20048;-56
2022/06/20 08:29:01;;;;;;;8.00;2.72;;;;;;;18.36;62.59;99924.31;4999929;28;20563;-56
2022/06/20 08:31:52;;;;;;;6.25;2.40;;;;;;;18.34;62.71;99923.47;5014196;28;20049;-56
2022/06/20 08:35:08;;;;;;;7.22;2.83;;;;;;;18.31;62.61;99928.75;5013769;28;20123;-56
2022/06/20 08:38:04;;;;;;;;;;;;;;;18.25;62.61;99922.75;4999021;28;20183;-56
2022/06/20 08:41:01;;;;;;;7.95;2.42;;;;;;;18.25;62.55;99921.88;4999559;28;19983;-56
2022/06/20 08:44:20;;;;;;;4.50;2.28;;;;;;;18.25;62.57;99932.34;4999600;28;20053;-56
2022/06/20 08:47:13;;;;;;;9.48;2.75;;;;;;;18.25;62.56;99938.47;5013896;28;20096;-55
2022/06/20 08:50:16;;;;;;;7.70;2.97;;;;;;;18.26;62.68;99952.44;5013875;28;20104;-55
2022/06/20 08:53:18;;;;;;;7.18;2.70;;;;;;;18.26;62.53;99944.59;5014204;28;20088;-55
2022/06/20 08:56:23;;;;;;;9.30;3.25;;;;;;;18.26;62.63;99939.34;4999288;28;20484;-55
2022/06/20 08:59:49;;;;;;;5.30;2.20;;;;;;;18.23;62.56;99948.13;4999083;28;20128;-55
2022/06/20 09:02:49;;;;;;;7.38;2.63;;;;;;;18.23;62.59;99956.00;4991687;28;20061;-56
2022/06/20 09:05:39;;;;;;;9.95;2.63;;;;;;;18.23;62.52;99963.00;4998964;28;20257;-55
2022/06/20 09:08:52;;;;;;;5.45;2.15;;;;;;;18.23;62.46;99960.38;4999115;28;20150;-55
2022/06/20 09:11:42;;;;;;;9.63;3.33;;;;;;;18.24;62.79;99955.13;5013408;28;20417;-55
2022/06/20 09:14:39;;;;;;;6.65;2.65;;;;;;;18.24;62.56;99957.75;5014083;28;20056;-55
2022/06/20 09:17:35;;;;;;;5.78;2.22;;;;;;;18.23;62.67;99952.50;4998771;28;20095;-56
2022/06/20 09:20:38;;;;;;;7.40;2.63;;;;;;;18.22;62.59;99954.28;4999071;28;20103;-56
2022/06/20 09:23:57;;;;;;;6.78;2.78;;;;;;;18.22;62.61;99953.38;4998874;28;20045;-56
2022/06/20 09:26:50;;;;;;;3.45;2.00;;;;;;;18.21;62.61;99962.19;4998233;28;20045;-56
2022/06/20 09:29:43;;;;;;;6.10;2.45;;;;;;;18.21;62.45;99972.66;5013560;28;20048;-56
2022/06/20 09:32:46;;;;;;;4.95;2.25;;;;;;;18.22;62.42;99977.88;4998946;28;20056;-56
2022/06/20 09:35:51;;;;;;;9.27;2.58;;;;;;;18.22;62.52;99972.63;5013246;28;20409;-57
2022/06/20 09:38:39;;;;;;;7.63;2.35;;;;;;;18.22;62.42;99974.38;5013448;28;20526;-56
2022/06/20 09:41:49;;;;;;;5.13;2.40;;;;;;;18.21;62.64;99980.53;5013728;28;20045;-56
2022/06/20 09:44:59;;;;;;;5.75;2.03;;;;;;;18.21;62.66;99977.91;4998663;28;20096;-57
2022/06/20 09:48:16;;;;;;;5.15;1.90;;;;;;;18.20;62.43;99979.66;4998401;28;20049;-55
2022/06/20 09:51:12;;;;;;;7.35;2.40;;;;;;;18.21;62.51;99981.38;5010513;28;20616;-56
2022/06/20 09:54:16;;;;;;;7.03;1.90;;;;;;;18.21;62.71;99991.88;5002359;28;20096;-56
2022/06/20 09:57:27;;;;;;;7.18;2.10;;;;;;;18.20;62.47;99984.91;5017115;28;20133;-56
2022/06/20 10:00:38;;;;;;;8.23;2.65;;;;;;;18.22;62.53;99979.63;5017392;28;20049;-56
2022/06/20 10:03:41;;;;;;;6.00;2.25;;;;;;;18.19;62.65;99977.91;5002031;28;20092;-56
2022/06/20 10:06:43;;;;;;;5.72;1.90;;;;;;;18.20;62.62;99977.03;5016804;28;20041;-56
2022/06/20 10:09:49;;;;;;;5.93;2.30;;;;;;;18.20;62.46;99982.28;5016932;28;20405;-56
2022/06/20 10:12:46;;;;;;;7.30;2.50;;;;;;;18.20;62.65;99987.53;5016404;28;20064;-56
2022/06/20 10:15:39;;;;;;;7.93;2.17;;;;;;;18.19;62.77;99980.53;5002161;28;20482;-55
2022/06/20 10:18:43;;;;;;;5.85;2.30;;;;;;;18.17;62.58;99987.56;5016668;28;20053;-56
2022/06/20 10:21:37;;;;;;;8.40;2.92;;;;;;;18.19;62.73;99996.28;4986572;28;20052;-57
2022/06/20 10:24:42;;;;;;;8.32;2.10;;;;;;;18.18;62.87;99994.53;5016640;28;20037;-56
2022/06/20 10:27:41;;;;;;;5.63;2.03;;;;;;;18.19;62.75;99998.06;5001662;28;20052;-56
2022/06/20 10:30:44;;;;;;;7.85;2.40;;;;;;;18.19;62.61;100000.66;5001405;28;20149;-55
2022/06/20 10:33:30;;;;;;;5.85;2.40;;;;;;;18.22;62.84;100014.59;5001989;28;20049;-56
2022/06/20 10:36:21;;;;;;;4.25;2.13;;;;;;;18.25;62.92;100011.03;5016124;28;20425;-56
2022/06/20 10:39:38;;;;;;;5.10;2.40;;;;;;;18.25;62.58;100014.56;5001645;28;20512;-55
2022/06/20 10:42:39;;;;;;;8.82;2.30;;;;;;;18.24;62.61;100014.56;5001446;28;20049;-55
2022/06/20 10:45:35;;;;;;;7.35;2.38;;;;;;;18.24;62.73;100007.56;5015901;28;20096;-56
2022/06/20 10:48:57;;;;;;;6.45;2.20;;;;;;;18.25;62.45;100006.69;5001217;28;20096;-55
2022/06/20 10:52:10;;;;;;;6.30;2.63;;;;;;;18.25;62.64;99990.94;5015834;28;20452;-55
2022/06/20 10:55:06;;;;;;;7.30;2.13;;;;;;;18.25;62.61;99998.81;5001386;28;20053;-55
2022/06/20 10:58:18;;;;;;;5.07;2.60;;;;;;;18.24;62.56;100001.44;5015723;28;20116;-55
2022/06/20 11:01:23;;;;;;;7.95;3.10;;;;;;;18.23;62.38;99999.72;5014625;28;20069;-56
2022/06/20 11:04:07;;;;;;;9.43;2.58;;;;;;;18.22;62.58;100001.47;4976308;28;20166;-56
2022/06/20 11:07:03;;;;;;;4.32;2.30;;;;;;;18.22;62.62;100004.09;4976532;28;20181;-56
2022/06/20 11:09:58;;;;;;;5.30;2.28;;;;;;;18.22;62.73;100003.22;4975657;28;20050;-56
2022/06/20 11:13:21;;;;;;;5.85;2.53;;;;;;;18.21;62.39;100012.00;4975527;28;20458;-56
2022/06/20 11:16:40;;;;;;;3.17;1.88;;;;;;;18.19;62.54;100012.00;4976516;28;20050;-55
2022/06/20 11:19:54;;;;;;;6.00;2.80;;;;;;;18.18;62.45;100010.28;4976737;28;20057;-56
2022/06/20 11:22:46;;;;;;;5.60;2.65;;;;;;;18.19;62.59;100000.66;4989438;28;20049;-56
2022/06/20 11:25:54;;;;;;;9.65;3.55;;;;;;;18.22;62.33;100009.34;4975461;28;20073;-56
2022/06/20 11:29:14;;;;;;;8.18;3.28;;;;;;;18.22;62.30;100004.09;4988597;28;20053;-55
2022/06/20 11:32:25;;;;;;;5.78;2.35;;;;;;;18.23;62.36;100003.22;4975313;28;20050;-55
2022/06/20 11:35:17;;;;;;;6.32;2.92;;;;;;;18.23;62.37;99997.97;4975419;28;20059;-55
2022/06/20 11:38:23;;;;;;;8.50;2.78;;;;;;;18.24;62.69;100007.56;4975165;28;20054;-54
2022/06/20 11:41:24;;;;;;;7.50;2.28;;;;;;;18.25;62.44;100000.56;4976368;28;20037;-55
2022/06/20 11:44:26;;;;;;;5.35;2.38;;;;;;;18.24;62.24;100006.69;4989254;28;20065;-56
2022/06/20 11:48:08;;;;;;;6.20;2.47;;;;;;;18.23;62.36;100005.84;4975272;28;20101;-56
2022/06/20 11:51:01;;;;;;;7.25;2.95;;;;;;;18.25;62.46;100003.19;4951480;28;20129;-56
2022/06/20 11:54:20;;;;;;;8.65;3.05;;;;;;;18.27;62.39;99998.78;4975293;28;20062;-56
2022/06/20 11:57:21;;;;;;;7.93;2.60;;;;;;;18.26;62.22;99997.94;4988929;28;20117;-56
2022/06/20 12:00:09;;;;;;;7.88;2.85;;;;;;;18.29;62.27;100001.41;4974600;28;20053;-57
2022/06/20 12:03:10;;;;;;;10.20;3.33;;;;;;;18.28;62.32;99995.25;4988595;28;20060;-56
2022/06/20 12:06:02;;;;;;;3.72;2.53;;;;;;;18.29;62.24;99998.78;4994883;28;20178;-56
2022/06/20 12:09:30;;;;;;;3.95;2.40;;;;;;;18.26;62.38;100000.53;4994115;28;20041;-56
2022/06/20 12:12:50;;;;;;;5.43;2.92;;;;;;;18.25;62.21;100001.44;4995056;28;20092;-57
2022/06/20 12:15:53;;;;;;;6.85;2.38;;;;;;;18.25;62.06;100004.06;4994932;28;20154;-54
2022/06/20 12:25:17;;;;;;;8.07;2.22;;;;;;;18.23;62.08;99997.09;4994984;28;20073;-56
2022/06/20 12:28:14;;;;;;;8.02;2.78;;;;;;;18.22;62.13;99990.09;4994040;28;20052;-56
2022/06/20 12:31:05;;;;;;;9.50;3.42;;;;;;;18.22;61.90;99991.00;4993534;28;20049;-57
2022/06/20 12:34:04;;;;;;;6.90;2.92;;;;;;;18.22;61.82;99987.47;4994658;28;20042;-55
2022/06/20 12:37:08;;;;;;;7.72;2.75;;;;;;;18.23;61.93;99986.59;4993877;28;20057;-55
2022/06/20 12:40:05;;;;;;;6.07;2.42;;;;;;;18.23;61.78;99992.72;4993963;28;20052;-55
2022/06/20 12:42:49;;;;;;;4.07;2.40;;;;;;;18.25;61.99;99993.56;4993200;28;20073;-56
2022/06/20 12:45:54;;;;;;;8.32;2.85;;;;;;;18.26;61.83;99994.41;4993540;28;20517;-56
2022/06/20 12:49:07;;;;;;;4.60;2.35;;;;;;;18.26;61.95;99991.78;4993168;28;20097;-57
2022/06/20 12:52:02;;;;;;;6.50;2.25;;;;;;;18.28;61.77;99986.53;4984534;28;20126;-56
2022/06/20 12:54:58;;;;;;;5.50;2.38;;;;;;;18.28;61.43;99990.00;4993448;28;20100;-56
2022/06/20 12:57:57;;;;;;;8.57;2.70;;;;;;;18.29;61.68;99988.28;4994558;28;20402;-56
2022/06/20 13:00:54;;;;;;;6.05;3.00;;;;;;;18.30;61.49;99993.47;4994824;28;20053;-57
2022/06/20 13:03:38;;;;;;;4.22;2.60;;;;;;;18.30;61.49;99987.34;4993428;28;20049;-56
2022/06/20 13:06:42;;;;;;;3.83;2.10;;;;;;;18.29;61.49;99991.75;4994223;28;20069;-56
2022/06/20 13:10:03;;;;;;;5.87;2.40;;;;;;;18.31;61.28;99986.47;4993554;28;20145;-56
2022/06/20 13:13:11;;;;;;;3.88;2.15;;;;;;;18.32;61.59;99985.56;4994342;28;20057;-56
2022/06/20 13:16:33;;;;;;;9.25;2.80;;;;;;;18.33;61.22;99982.06;4993996;28;20064;-56
2022/06/20 13:19:45;;;;;;;6.18;2.90;;;;;;;18.34;61.31;99991.66;4993329;28;20053;-57
2022/06/20 13:22:54;;;;;;;6.22;2.40;;;;;;;18.35;61.30;99978.53;4993953;28;20065;-56
2022/06/20 13:25:44;;;;;;;7.32;2.50;;;;;;;18.37;60.99;99989.00;4994875;28;20074;-56
2022/06/20 13:28:31;;;;;;;4.80;2.45;;;;;;;18.37;61.06;99995.09;4997052;28;20521;-56
2022/06/20 13:31:20;;;;;;;4.97;2.25;;;;;;;18.36;61.13;99988.16;4998290;28;20128;-56
2022/06/20 13:34:09;;;;;;;7.57;2.63;;;;;;;18.35;60.97;99990.78;4997488;28;20100;-56
2022/06/20 13:37:29;;;;;;;4.32;2.42;;;;;;;18.37;60.91;99986.38;4996896;28;20057;-56
2022/06/20 13:40:58;;;;;;;5.38;2.45;;;;;;;18.36;61.03;99985.53;4998159;28;20081;-56
2022/06/20 13:43:45;;;;;;;6.78;2.60;;;;;;;18.35;60.83;99980.28;4997713;28;20054;-56
2022/06/20 13:46:37;;;;;;;4.47;2.28;;;;;;;18.36;60.63;99989.88;4996779;28;20073;-56
2022/06/20 13:49:41;;;;;;;4.65;2.22;;;;;;;18.33;60.48;99977.69;4996538;28;20089;-56
2022/06/20 13:52:34;;;;;;;3.08;2.60;;;;;;;18.34;60.68;99979.44;4996954;28;20049;-56
2022/06/20 13:55:35;;;;;;;8.25;3.15;;;;;;;18.36;60.45;99987.25;4996763;28;20073;-56
2022/06/20 13:59:13;;;;;;;6.30;2.72;;;;;;;18.36;60.32;99979.41;4996567;28;20089;-56
2022/06/20 14:02:01;;;;;;;2.75;2.30;;;;;;;18.37;60.25;99973.25;4956351;29;20062;-56
2022/06/20 14:04:45;;;;;;;6.82;3.00;;;;;;;18.36;60.32;99980.28;4943399;29;20054;-56
2022/06/20 14:07:30;;;;;;;4.85;3.15;;;;;;;18.38;60.25;99973.22;4996217;28;20105;-55